Flight Information

DEPARTURE
SANTA MONICA, CA
Elevation:
169
Runways:
H1 - 40x40 - ASPH-G
3/21 - 3500x150 - ASPH-G
ATIS:
119.15 310-450-4620
Ground:
121.9
Tower:
120.1
DESTINATION
,
Elevation:
TPA:
1000 (est.)


6795.3 NM73° True-14° Var59° HDG

Flight Plan:
(click to file on line)

1. Type
2. Aircraft Identification
3. Aircraft Type / Special Equipment
4. True Airspeed
kts
5. Departure Airport
(ICAO code)
6. Arriving Airport
(ICAO code)
7. Cruising Altitude
ft
8. Alternate Airport
(ICAO code)
9. Route of Flight
10. Remarks


00:00:00 Departure ATIS: Destination ATIS:

Clearance Limit:
Route:
Altitude: Expect in minutes
Frequency:
Transponder: (7500 Hijack / 7600 Lost Comms / 7700 Emergency)


KHHR 281053Z AUTO 00000KT 8SM FU OVC012 20/17 A2987 RMK AO2 SLP113 T02000167
Time: 2020-09-28T10:53:00Z
1601292381
Winds: calm
Visibility: 8.0 sm
Clouds (AGL): OVC 1200
Temperature: 20.0 C
Dew Point: 16.7 C
Pressure: 29.870079 in Hgbr


Notes:

Data extracted from FAA Digital Chart Supplement. Effective: 0901Z Thursday, Sep 10, 2020 to 0901Z Thursday, Nov 5, 2020
Current ATIS data is provided courtisy of PilotEdge.